createdAt,value
2017-09-26T00:02:15.146Z,15.57
2017-09-26T00:04:44.334Z,13.50
2017-09-26T00:07:12.460Z,17.90
2017-09-26T00:09:40.570Z,18.13
2017-09-26T00:12:09.458Z,15.80
2017-09-26T00:14:38.371Z,14.60
2017-09-26T00:17:08.272Z,17.13
2017-09-26T00:19:37.174Z,17.63
2017-09-26T00:22:06.058Z,16.80
2017-09-26T00:24:34.964Z,16.20
2017-09-26T00:27:03.091Z,13.77
2017-09-26T00:29:31.411Z,17.17
2017-09-26T00:31:59.536Z,17.00
2017-09-26T00:34:27.684Z,17.40
2017-09-26T00:36:55.838Z,16.93
2017-09-26T00:39:24.060Z,16.03
2017-09-26T00:41:52.975Z,17.00
2017-09-26T00:44:21.099Z,15.97
2017-09-26T00:46:49.239Z,16.07
2017-09-26T00:49:17.371Z,14.97
2017-09-26T00:51:45.565Z,17.77
2017-09-26T00:54:14.463Z,16.70
2017-09-26T00:56:42.598Z,16.53
2017-09-26T00:59:11.497Z,18.13
2017-09-26T01:01:39.628Z,15.80
2017-09-26T01:04:07.762Z,14.97
2017-09-26T01:06:47.679Z,16.83
2017-09-26T01:09:15.811Z,15.37
2017-09-26T01:11:43.939Z,18.83
2017-09-26T01:14:12.062Z,18.07
2017-09-26T01:16:40.204Z,15.13
2017-09-26T01:19:08.336Z,17.87
2017-09-26T01:21:36.467Z,18.60
2017-09-26T01:24:04.612Z,17.33
2017-09-26T01:26:32.746Z,18.90
2017-09-26T01:29:00.880Z,16.30
2017-09-26T01:31:29.023Z,17.07
2017-09-26T01:33:57.154Z,16.87
2017-09-26T01:36:26.790Z,17.30
2017-09-26T01:38:55.680Z,17.80
2017-09-26T01:41:24.587Z,16.43
2017-09-26T01:43:52.782Z,17.80
2017-09-26T01:46:20.912Z,17.97
2017-09-26T01:48:49.812Z,18.10
2017-09-26T01:51:18.013Z,17.73
2017-09-26T01:53:46.123Z,18.77
2017-09-26T01:56:18.847Z,17.13
2017-09-26T01:59:02.706Z,16.53
2017-09-26T02:01:30.955Z,17.90
2017-09-26T02:03:59.103Z,16.93
2017-09-26T02:06:28.011Z,16.60
2017-09-26T02:08:56.147Z,18.37
2017-09-26T02:11:24.462Z,18.07
2017-09-26T02:13:52.603Z,16.60
2017-09-26T02:16:20.734Z,17.70
2017-09-26T02:18:48.859Z,16.47
2017-09-26T02:21:17.754Z,18.10
2017-09-26T02:23:45.895Z,18.90
2017-09-26T02:26:14.032Z,17.23
2017-09-26T02:28:42.160Z,20.90
2017-09-26T02:31:11.059Z,18.90
2017-09-26T02:33:39.952Z,19.60
2017-09-26T02:36:08.094Z,19.13
2017-09-26T02:38:36.220Z,19.57
2017-09-26T02:41:04.383Z,16.70
2017-09-26T02:43:32.504Z,18.03
2017-09-26T02:46:00.635Z,17.93
2017-09-26T02:48:28.767Z,16.27
2017-09-26T02:50:56.906Z,16.57
2017-09-26T02:53:25.048Z,18.53
2017-09-26T02:55:53.176Z,18.17
2017-09-26T02:58:21.298Z,18.13
2017-09-26T03:00:49.439Z,18.10
2017-09-26T03:03:17.558Z,15.90
2017-09-26T03:05:45.695Z,19.73
2017-09-26T03:08:13.820Z,20.37
2017-09-26T03:10:41.990Z,19.00
2017-09-26T03:13:10.188Z,19.20
2017-09-26T03:15:39.086Z,20.40
2017-09-26T03:18:07.218Z,20.03
2017-09-26T03:20:35.352Z,18.90
2017-09-26T03:23:03.482Z,19.17
2017-09-26T03:25:32.380Z,18.10
2017-09-26T03:28:01.264Z,15.93
2017-09-26T03:30:30.151Z,15.90
2017-09-26T03:32:59.057Z,13.80
2017-09-26T03:35:27.964Z,15.40
2017-09-26T03:37:56.091Z,16.77
2017-09-26T03:40:24.222Z,16.00
2017-09-26T03:42:52.356Z,17.60
2017-09-26T03:45:21.247Z,16.30
2017-09-26T03:47:50.148Z,16.23
2017-09-26T03:50:18.326Z,17.13
2017-09-26T03:52:46.450Z,16.87
2017-09-26T03:55:14.569Z,22.07
2017-09-26T03:57:42.700Z,19.97
2017-09-26T04:00:11.595Z,20.70
2017-09-26T04:02:40.487Z,19.83
2017-09-26T04:05:08.612Z,18.70
2017-09-26T04:07:36.739Z,19.20
2017-09-26T04:10:05.658Z,16.00
2017-09-26T04:12:33.830Z,16.60
2017-09-26T04:15:01.954Z,17.00
2017-09-26T04:17:30.087Z,16.73
2017-09-26T04:19:58.216Z,16.00
2017-09-26T04:22:26.342Z,16.17
2017-09-26T04:24:54.471Z,18.77
2017-09-26T04:27:22.604Z,18.80
2017-09-26T04:29:52.244Z,17.30
2017-09-26T04:32:21.132Z,18.67
2017-09-26T04:34:50.135Z,30.53
2017-09-26T04:37:18.264Z,27.20
2017-09-26T04:39:46.479Z,26.30
2017-09-26T04:42:14.609Z,25.07
2017-09-26T04:44:42.726Z,35.93
2017-09-26T04:47:10.915Z,22.63
2017-09-26T04:49:39.044Z,17.63
2017-09-26T04:52:07.954Z,31.33
2017-09-26T04:54:36.836Z,30.33
2017-09-26T04:57:04.979Z,32.30
2017-09-26T04:59:33.314Z,25.20
2017-09-26T05:02:01.428Z,22.50
2017-09-26T05:04:29.496Z,22.03
2017-09-26T05:06:58.351Z,21.97
2017-09-26T05:09:26.435Z,25.60
2017-09-26T05:11:54.522Z,27.23
2017-09-26T05:14:23.384Z,23.13
2017-09-26T05:16:51.460Z,20.63
2017-09-26T05:19:19.551Z,27.20
2017-09-26T05:21:48.420Z,22.43
2017-09-26T05:24:16.613Z,18.20
2017-09-26T05:26:44.703Z,16.87
2017-09-26T05:29:12.891Z,19.17
2017-09-26T05:31:41.032Z,18.73
2017-09-26T05:34:09.238Z,17.80
2017-09-26T05:36:37.324Z,17.40
2017-09-26T05:39:05.408Z,17.77
2017-09-26T05:41:33.490Z,19.57
2017-09-26T05:44:01.570Z,16.27
2017-09-26T05:46:29.681Z,16.20
2017-09-26T05:48:57.946Z,17.60
2017-09-26T05:51:26.043Z,21.30
2017-09-26T05:53:54.141Z,18.33
2017-09-26T05:56:22.222Z,17.70
2017-09-26T05:58:50.616Z,15.77
2017-09-26T06:01:20.216Z,15.07
2017-09-26T06:03:48.302Z,16.13
2017-09-26T06:06:16.416Z,14.20
2017-09-26T06:08:44.520Z,13.97
2017-09-26T06:11:13.406Z,16.03
2017-09-26T06:13:42.263Z,21.17
2017-09-26T06:16:10.367Z,22.23
2017-09-26T06:18:38.455Z,15.30
2017-09-26T06:21:06.692Z,15.30
2017-09-26T06:23:35.805Z,20.40
2017-09-26T06:26:03.966Z,17.80
2017-09-26T06:28:32.154Z,23.27
2017-09-26T06:31:00.255Z,21.33
2017-09-26T06:33:29.131Z,19.63
2017-09-26T06:35:57.223Z,18.83
2017-09-26T06:38:26.083Z,20.63
2017-09-26T06:40:54.183Z,17.97
2017-09-26T06:43:23.042Z,17.80
2017-09-26T06:45:51.247Z,17.70
2017-09-26T06:48:20.098Z,19.20
2017-09-26T06:50:48.269Z,18.03
2017-09-26T06:53:16.369Z,18.87
2017-09-26T06:55:44.454Z,20.07
2017-09-26T06:58:13.307Z,17.00
2017-09-26T07:00:42.192Z,18.60
2017-09-26T07:03:10.306Z,17.53
2017-09-26T07:05:38.528Z,16.00
2017-09-26T07:08:07.383Z,16.17
2017-09-26T07:10:35.469Z,16.57
2017-09-26T07:13:03.555Z,19.03
2017-09-26T07:15:31.641Z,17.90
2017-09-26T07:17:59.737Z,17.90
2017-09-26T07:20:28.603Z,18.70
2017-09-26T07:22:56.706Z,15.97
2017-09-26T07:25:25.558Z,15.73
2017-09-26T07:27:53.647Z,18.23
2017-09-26T07:30:25.500Z,17.20
2017-09-26T07:32:56.533Z,14.23
2017-09-26T07:35:25.329Z,17.23
2017-09-26T07:37:53.639Z,18.60
2017-09-26T07:40:21.980Z,17.93
2017-09-26T07:42:50.373Z,18.57
2017-09-26T07:45:19.812Z,18.83
2017-09-26T07:47:48.776Z,17.37
2017-09-26T07:50:17.115Z,16.63
2017-09-26T07:52:45.794Z,15.00
2017-09-26T07:55:17.913Z,18.13
2017-09-26T07:57:48.725Z,17.07
2017-09-26T08:00:25.190Z,16.27
2017-09-26T08:02:56.525Z,15.53
2017-09-26T08:05:25.371Z,17.93
2017-09-26T08:07:54.116Z,17.07
2017-09-26T08:10:22.699Z,16.50
2017-09-26T08:12:53.022Z,18.13
2017-09-26T08:15:21.533Z,17.83
2017-09-26T08:17:49.631Z,18.87
2017-09-26T08:20:17.738Z,16.90
2017-09-26T08:22:45.830Z,17.57
2017-09-26T08:25:13.940Z,19.17
2017-09-26T08:27:42.022Z,18.70
2017-09-26T08:30:10.135Z,20.23
2017-09-26T08:32:38.236Z,18.00
2017-09-26T08:35:07.099Z,19.50
2017-09-26T08:37:35.183Z,19.07
2017-09-26T08:40:03.279Z,16.63
2017-09-26T08:42:31.380Z,16.93
2017-09-26T08:44:59.489Z,20.23
2017-09-26T08:47:27.580Z,16.80
2017-09-26T08:49:56.424Z,19.33
2017-09-26T08:52:24.525Z,19.17
2017-09-26T08:54:52.619Z,17.70
2017-09-26T08:57:21.478Z,15.00
2017-09-26T08:59:49.552Z,16.37
2017-09-26T09:02:17.652Z,16.27
2017-09-26T09:04:46.612Z,16.70
2017-09-26T09:07:16.264Z,14.70
2017-09-26T09:09:44.390Z,16.10
2017-09-26T09:12:13.246Z,16.40
2017-09-26T09:14:41.351Z,16.77
2017-09-26T09:17:09.453Z,15.27
2017-09-26T09:19:37.559Z,13.83
2017-09-26T09:22:05.659Z,14.77
2017-09-26T09:24:34.533Z,13.30
2017-09-26T09:27:02.627Z,14.90
2017-09-26T09:29:31.487Z,15.23
2017-09-26T09:31:59.599Z,15.07
2017-09-26T09:34:28.447Z,15.33
2017-09-26T09:36:56.543Z,15.53
2017-09-26T09:39:24.669Z,12.60
2017-09-26T09:41:52.777Z,14.90
2017-09-26T09:44:20.850Z,13.33
2017-09-26T09:46:48.948Z,14.63
2017-09-26T09:49:17.048Z,15.07
2017-09-26T09:51:45.145Z,14.93
2017-09-26T09:54:13.240Z,13.23
2017-09-26T09:56:42.093Z,13.20
2017-09-26T09:59:10.192Z,16.70
2017-09-26T10:01:38.372Z,12.13
2017-09-26T10:04:07.463Z,14.60
2017-09-26T10:06:35.553Z,13.30
2017-09-26T10:09:03.759Z,15.97
2017-09-26T10:11:31.846Z,13.03
2017-09-26T10:13:59.951Z,11.40
2017-09-26T10:16:28.207Z,15.10
2017-09-26T10:18:56.487Z,13.23
2017-09-26T10:21:24.588Z,13.93
2017-09-26T10:23:52.698Z,12.10
2017-09-26T10:26:20.833Z,11.37
2017-09-26T10:28:48.929Z,13.97
2017-09-26T10:31:17.255Z,14.13
2017-09-26T10:33:46.857Z,13.70
2017-09-26T10:36:15.056Z,12.33
2017-09-26T10:38:43.196Z,13.07
2017-09-26T10:41:11.296Z,13.07
2017-09-26T10:43:40.158Z,12.00
2017-09-26T10:46:08.248Z,12.90
2017-09-26T10:48:37.113Z,11.40
2017-09-26T10:51:05.204Z,12.97
2017-09-26T10:53:34.079Z,14.70
2017-09-26T10:56:02.528Z,13.60
2017-09-26T10:58:30.610Z,12.20
2017-09-26T11:00:58.763Z,14.40
2017-09-26T11:03:26.859Z,12.60
2017-09-26T11:05:54.964Z,12.23
2017-09-26T11:08:23.048Z,12.33
2017-09-26T11:10:51.149Z,13.00
2017-09-26T11:13:19.275Z,12.80
2017-09-26T11:15:48.131Z,12.53
2017-09-26T11:18:16.235Z,13.73
2017-09-26T11:20:45.096Z,12.93
2017-09-26T11:23:13.475Z,12.73
2017-09-26T11:25:41.598Z,12.43
2017-09-26T11:28:10.434Z,13.87
2017-09-26T11:30:38.519Z,13.63
2017-09-26T11:33:07.387Z,14.90
2017-09-26T11:35:35.480Z,11.83
2017-09-26T11:38:04.695Z,14.33
2017-09-26T11:40:33.558Z,14.40
2017-09-26T11:43:01.657Z,12.97
2017-09-26T11:45:29.757Z,15.47
2017-09-26T11:47:57.847Z,14.07
2017-09-26T11:50:25.943Z,13.27
2017-09-26T11:52:54.792Z,12.80
2017-09-26T11:55:22.892Z,13.20
2017-09-26T11:57:50.997Z,13.70
2017-09-26T12:00:19.216Z,13.90
2017-09-26T12:02:47.316Z,13.20
2017-09-26T12:05:15.416Z,13.30
2017-09-26T12:07:43.546Z,12.63
2017-09-26T12:10:12.537Z,13.37
2017-09-26T12:12:40.662Z,12.37
2017-09-26T12:15:08.756Z,12.10
2017-09-26T12:17:36.846Z,11.60
2017-09-26T12:20:04.975Z,10.30
2017-09-26T12:22:33.064Z,12.00
2017-09-26T12:25:01.157Z,13.53
2017-09-26T12:27:29.250Z,12.90
2017-09-26T12:29:58.119Z,13.33
2017-09-26T12:32:26.211Z,13.30
2017-09-26T12:34:55.074Z,12.50
2017-09-26T12:37:23.159Z,13.67
2017-09-26T12:39:51.263Z,13.33
2017-09-26T12:42:19.376Z,12.60
2017-09-26T12:47:29.843Z,11.77
2017-09-26T12:49:57.934Z,12.27
2017-09-26T12:52:26.027Z,11.70
2017-09-26T12:54:54.896Z,11.43
2017-09-26T12:57:22.986Z,11.73
2017-09-26T12:59:51.869Z,11.50
2017-09-26T13:02:19.955Z,10.90
2017-09-26T13:04:48.811Z,10.93
2017-09-26T13:07:17.208Z,11.33
2017-09-26T13:09:45.441Z,10.37
2017-09-26T13:12:13.528Z,11.80
2017-09-26T13:14:41.637Z,10.73
2017-09-26T13:17:10.593Z,10.90
2017-09-26T13:19:38.724Z,9.97
2017-09-26T13:22:06.820Z,11.67
2017-09-26T13:24:35.114Z,11.63
2017-09-26T13:27:03.311Z,10.20
2017-09-26T13:29:32.226Z,10.50
2017-09-26T13:32:00.333Z,11.17
2017-09-26T13:34:28.418Z,10.67
2017-09-26T13:36:56.522Z,10.73
2017-09-26T13:39:25.761Z,10.17
2017-09-26T13:41:54.767Z,12.53
2017-09-26T13:44:22.874Z,9.40
2017-09-26T13:46:51.710Z,11.67
2017-09-26T13:49:19.801Z,10.43
2017-09-26T13:51:47.879Z,11.90
2017-09-26T13:54:15.961Z,10.10
2017-09-26T13:56:44.051Z,9.80
2017-09-26T13:59:12.895Z,9.43
2017-09-26T14:01:40.999Z,9.47
2017-09-26T14:04:09.846Z,10.70
2017-09-26T14:06:37.954Z,11.30
2017-09-26T14:09:06.898Z,10.10
2017-09-26T14:11:34.983Z,9.40
2017-09-26T14:14:03.068Z,9.90
2017-09-26T14:16:31.163Z,11.57
2017-09-26T14:18:59.278Z,10.60
2017-09-26T14:21:27.368Z,12.07
2017-09-26T14:23:55.456Z,10.97
2017-09-26T14:26:24.066Z,10.93
2017-09-26T14:28:52.917Z,11.53
2017-09-26T14:31:21.007Z,10.80
2017-09-26T14:33:49.862Z,9.13
2017-09-26T14:36:17.948Z,9.37
2017-09-26T14:38:46.032Z,8.80
2017-09-26T14:41:14.119Z,10.23
2017-09-26T14:43:42.971Z,9.20
2017-09-26T14:46:11.066Z,10.50
2017-09-26T14:48:39.954Z,10.27
2017-09-26T14:51:08.831Z,9.50
2017-09-26T14:53:36.911Z,8.60
2017-09-26T14:56:04.987Z,9.70
2017-09-26T14:58:33.855Z,9.10
2017-09-26T15:01:01.949Z,9.43
2017-09-26T15:03:30.814Z,9.20
2017-09-26T15:05:58.900Z,8.37
2017-09-26T15:08:26.976Z,10.03
2017-09-26T15:10:55.838Z,8.30
2017-09-26T15:13:23.919Z,9.30
2017-09-26T15:15:52.023Z,9.40
2017-09-26T15:18:20.179Z,9.43
2017-09-26T15:20:49.150Z,9.03
2017-09-26T15:23:17.245Z,8.87
2017-09-26T15:25:46.256Z,8.93
2017-09-26T15:28:14.381Z,9.97
2017-09-26T15:30:44.618Z,9.40
2017-09-26T15:33:13.229Z,9.10
2017-09-26T15:35:42.345Z,9.90
2017-09-26T15:38:10.434Z,9.70
2017-09-26T15:40:38.671Z,9.50
2017-09-26T15:43:07.997Z,8.80
2017-09-26T15:45:36.208Z,8.57
2017-09-26T15:48:04.288Z,9.80
2017-09-26T15:50:33.177Z,10.00
2017-09-26T15:53:02.379Z,18.50
2017-09-26T15:55:30.803Z,9.83
2017-09-26T15:57:59.116Z,8.67
2017-09-26T16:00:27.358Z,8.63
2017-09-26T16:02:56.195Z,9.47
2017-09-26T16:05:24.807Z,9.50
2017-09-26T16:07:54.407Z,9.60
2017-09-26T16:10:23.260Z,10.70
2017-09-26T16:12:52.259Z,10.10
2017-09-26T16:15:21.071Z,10.37
2017-09-26T16:17:50.569Z,9.77
2017-09-26T16:20:18.759Z,9.97
2017-09-26T16:22:48.124Z,8.67
2017-09-26T16:25:16.587Z,10.73
2017-09-26T16:27:46.446Z,10.40
2017-09-26T16:30:15.796Z,8.80
2017-09-26T16:32:45.169Z,9.10
2017-09-26T16:35:14.103Z,10.53
2017-09-26T16:37:42.316Z,12.17
2017-09-26T16:40:10.623Z,10.13
2017-09-26T16:42:38.829Z,10.87
2017-09-26T16:45:07.708Z,11.33
2017-09-26T16:47:36.684Z,11.00
2017-09-26T16:50:04.778Z,13.40
2017-09-26T16:52:33.652Z,10.30
2017-09-26T16:55:01.743Z,10.00
2017-09-26T16:57:30.612Z,10.37
2017-09-26T16:59:58.723Z,10.07
2017-09-26T17:02:26.827Z,10.67
2017-09-26T17:04:54.931Z,10.90
2017-09-26T17:07:23.020Z,10.87
2017-09-26T17:09:51.105Z,9.80
2017-09-26T17:12:19.202Z,11.10
2017-09-26T17:14:47.298Z,11.00
2017-09-26T17:17:15.389Z,10.80
2017-09-26T17:19:44.254Z,12.30
2017-09-26T17:22:12.349Z,14.67
2017-09-26T17:24:41.191Z,12.50
2017-09-26T17:27:09.280Z,11.77
2017-09-26T17:29:37.375Z,15.63
2017-09-26T17:32:06.233Z,20.70
2017-09-26T17:34:34.325Z,33.00
2017-09-26T17:37:02.416Z,24.87
2017-09-26T17:39:31.479Z,17.67
2017-09-26T17:44:56.456Z,22.63
2017-09-26T17:47:24.550Z,21.30
2017-09-26T17:49:52.630Z,21.03
2017-09-26T17:52:20.828Z,21.90
2017-09-26T17:54:48.927Z,34.77
2017-09-26T17:57:17.298Z,36.33
2017-09-26T17:59:45.440Z,35.87
2017-09-26T18:02:14.339Z,39.47
2017-09-26T18:04:42.431Z,34.13
2017-09-26T18:07:10.540Z,27.40
2017-09-26T18:09:38.684Z,23.87
2017-09-26T18:12:06.801Z,23.93
2017-09-26T18:14:34.956Z,20.27
2017-09-26T18:17:03.039Z,18.67
2017-09-26T18:19:31.125Z,16.77
2017-09-26T18:21:59.996Z,18.90
2017-09-26T18:24:28.138Z,20.73
2017-09-26T18:26:56.234Z,21.93
2017-09-26T18:29:24.338Z,22.60
2017-09-26T18:31:53.202Z,24.70
2017-09-26T18:34:21.292Z,20.17
2017-09-26T18:36:50.147Z,21.83
2017-09-26T18:39:18.260Z,20.40
2017-09-26T18:41:47.186Z,23.27
2017-09-26T18:44:15.338Z,27.10
2017-09-26T18:46:44.185Z,24.23
2017-09-26T18:49:12.318Z,24.40
2017-09-26T18:51:41.208Z,20.50
2017-09-26T18:54:10.072Z,17.97
2017-09-26T18:56:38.284Z,18.50
2017-09-26T18:59:07.395Z,19.53
2017-09-26T19:01:35.522Z,18.13
2017-09-26T19:04:03.640Z,16.40
2017-09-26T19:06:31.766Z,17.33
2017-09-26T19:08:59.891Z,18.03
2017-09-26T19:11:28.103Z,16.73
2017-09-26T19:13:57.030Z,17.83
2017-09-26T19:16:25.152Z,18.83
2017-09-26T19:18:53.285Z,20.87
2017-09-26T19:21:21.420Z,21.70
2017-09-26T19:23:49.545Z,21.00
2017-09-26T19:26:17.672Z,20.67
2017-09-26T19:28:45.794Z,22.47
2017-09-26T19:31:13.924Z,21.07
2017-09-26T19:33:42.050Z,22.17
2017-09-26T19:36:10.183Z,21.20
2017-09-26T19:38:38.349Z,21.27
2017-09-26T19:41:06.466Z,21.03
2017-09-26T19:43:34.721Z,19.43
2017-09-26T19:46:02.826Z,19.50
2017-09-26T19:48:31.728Z,17.77
2017-09-26T19:50:59.927Z,17.70
2017-09-26T19:53:28.063Z,25.70
2017-09-26T19:55:56.274Z,24.40
2017-09-26T19:58:24.449Z,30.77
2017-09-26T20:00:52.586Z,28.60
2017-09-26T20:03:20.880Z,21.70
2017-09-26T20:05:49.012Z,20.20
2017-09-26T20:08:17.237Z,20.20
2017-09-26T20:10:45.354Z,19.43
2017-09-26T20:13:13.487Z,19.70
2017-09-26T20:15:41.610Z,26.87
2017-09-26T20:18:09.819Z,27.03
2017-09-26T20:20:38.711Z,23.40
2017-09-26T20:23:06.793Z,22.60
2017-09-26T20:25:34.958Z,20.80
2017-09-26T20:28:03.031Z,17.90
2017-09-26T20:30:31.216Z,20.90
2017-09-26T20:32:59.341Z,18.20
2017-09-26T20:35:27.431Z,17.97
2017-09-26T20:37:55.580Z,17.40
2017-09-26T20:40:23.659Z,18.03
2017-09-26T20:42:52.638Z,22.03
2017-09-26T20:45:20.719Z,21.53
2017-09-26T20:47:48.813Z,22.10
2017-09-26T20:50:16.891Z,20.73
2017-09-26T20:52:44.995Z,22.17
2017-09-26T20:55:13.095Z,22.07
2017-09-26T20:57:41.961Z,27.50
2017-09-26T21:00:10.084Z,25.23
2017-09-26T21:02:38.952Z,21.80
2017-09-26T21:05:07.799Z,18.60
2017-09-26T21:07:35.988Z,20.73
2017-09-26T21:10:05.601Z,25.27
2017-09-26T21:12:33.776Z,22.03
2017-09-26T21:15:02.631Z,19.70
2017-09-26T21:17:31.494Z,21.90
2017-09-26T21:20:00.312Z,24.17
2017-09-26T21:22:28.528Z,20.40
2017-09-26T21:24:56.776Z,20.70
2017-09-26T21:27:24.857Z,20.90
2017-09-26T21:29:53.012Z,21.00
2017-09-26T21:32:21.100Z,23.17
2017-09-26T21:34:49.964Z,22.70
2017-09-26T21:37:18.151Z,26.20
2017-09-26T21:39:46.234Z,24.10
2017-09-26T21:42:14.332Z,21.83
2017-09-26T21:44:42.416Z,20.20
2017-09-26T21:47:10.635Z,19.30
2017-09-26T21:49:38.785Z,19.73
2017-09-26T21:52:06.887Z,18.53
2017-09-26T21:54:35.755Z,16.70
2017-09-26T21:57:03.858Z,15.90
2017-09-26T21:59:32.835Z,17.30
2017-09-26T22:02:01.716Z,18.10
2017-09-26T22:04:29.822Z,20.83
2017-09-26T22:06:57.926Z,19.10
2017-09-26T22:09:26.082Z,19.27
2017-09-26T22:11:54.196Z,20.03
2017-09-26T22:14:22.298Z,21.97
2017-09-26T22:16:50.394Z,21.93
2017-09-26T22:19:18.488Z,18.83
2017-09-26T22:21:46.689Z,19.70
2017-09-26T22:24:15.552Z,18.77
2017-09-26T22:26:43.647Z,17.20
2017-09-26T22:29:11.743Z,18.33
2017-09-26T22:31:39.987Z,17.70
2017-09-26T22:34:08.139Z,19.13
2017-09-26T22:36:36.243Z,19.13
2017-09-26T22:39:05.175Z,16.57
2017-09-26T22:41:33.307Z,16.43
2017-09-26T22:44:01.400Z,17.47
2017-09-26T22:46:29.481Z,16.67
2017-09-26T22:48:57.581Z,17.87
2017-09-26T22:51:25.793Z,16.03
2017-09-26T22:53:53.897Z,17.13
2017-09-26T22:56:22.003Z,16.33
2017-09-26T22:58:50.099Z,18.27
2017-09-26T23:01:18.951Z,21.47
2017-09-26T23:03:47.059Z,19.43
2017-09-26T23:06:15.912Z,21.37
2017-09-26T23:08:45.647Z,19.50
2017-09-26T23:11:13.745Z,21.70
2017-09-26T23:13:42.594Z,21.20
2017-09-26T23:16:10.683Z,20.23
2017-09-26T23:18:39.560Z,19.70
2017-09-26T23:21:07.914Z,19.60
2017-09-26T23:23:36.036Z,18.67
2017-09-26T23:26:04.140Z,18.97
2017-09-26T23:28:32.255Z,19.50
2017-09-26T23:31:01.133Z,17.70
2017-09-26T23:33:29.223Z,18.60
2017-09-26T23:35:57.407Z,20.20
2017-09-26T23:38:25.504Z,24.00
2017-09-26T23:40:53.612Z,19.97
2017-09-26T23:43:21.716Z,20.80
2017-09-26T23:45:50.686Z,19.23
2017-09-26T23:48:20.282Z,20.30
2017-09-26T23:50:48.464Z,22.37
2017-09-26T23:53:16.576Z,20.00
2017-09-26T23:55:44.672Z,20.90
2017-09-26T23:58:12.772Z,19.47
